Pays
Station

 

Conditions  météo  pour  Alton/St. Louis Regional  -  Etats-Unis    Etats-Unis

  
27 °C
    
 
 

METAR pour Alton/St. Louis Regional :

KALN 172350Z 00000KT 10SM SCT200 27/21 A3003

 

Voici le bulletin pour Alton/St. Louis Regional - Etats-Unis.
 
Le bulletin a été fait il y a 48 minutes, à 23:50 UTC .
Le vent était calme.
 
La température était de 27 °C, avec un point de rosée à 21 °C.
La température ressentie était de 29 °C.
 
La pression atmosphérique était de 1017 hPa.
L'humidité relative était de 69.8%.
 
Il y avait 3 à 4/8ème de nébulosité à une hauteur de 6096 mètres.
 
La visibilité globale était de 16.1 kilomètres.
 

 
 
 

Pays :   A   B   C   D   E   F   G   H   I   J   K   L   M   N   O   P   Q   R   S   T   U   V   W   Y   Z

 

Partenaires :  Info Météo avec Met'info
Météo Marine avec MeteoMarine.net
Infos Site  |  Infos Légales  |  Crédits  |  Confidentialité
Contactez-nous  |  Ajouter aux favoris
© 2013-2018 METAR - Tous droits réservés